Terminal Aerodrome Forecast
Issued by NWS

Home | Current Version | Previous Version | Text Only | Print | Product List | Glossary On
Versions: 1 2 3 4 5 6 7 8 9 10 11 12 13 14 15 16 17 18 19 20 21 22 23 24 25 26 27 28 29 30 31
000
FTUS45 KBOI 231140
TAFTWF
TAF
KTWF 231140Z 2312/2412 21008KT P6SM VCSH OVC050
      TEMPO 2312/2315 4SM -SHRA BKN030
     FM232100 28012G17KT P6SM -SHRA VCTS BKN050CB OVC100
     FM240000 27010KT P6SM VCSH BKN050 OVC100
     FM240400 19010KT P6SM SCT050 BKN100=

USA.gov is the U.S. government's official web portal to all federal, state and local government web resources and services.